createdAt,value
2023-01-12T00:00:40.536Z,97.44
2023-01-12T00:01:40.476Z,97.34
2023-01-12T00:02:40.525Z,97.34
2023-01-12T00:03:40.455Z,97.55
2023-01-12T00:04:40.453Z,97.65
2023-01-12T00:05:40.453Z,97.59
2023-01-12T00:06:40.474Z,97.34
2023-01-12T00:07:40.423Z,97.28
2023-01-12T00:08:40.418Z,97.49
2023-01-12T00:09:40.415Z,97.65
2023-01-12T00:10:40.431Z,97.59
2023-01-12T00:11:40.362Z,97.65
2023-01-12T00:12:40.350Z,97.44
2023-01-12T00:13:40.364Z,97.34
2023-01-12T00:14:40.324Z,97.55
2023-01-12T00:15:40.392Z,97.13
2023-01-12T00:16:40.305Z,97.17
2023-01-12T00:17:40.332Z,97.28
2023-01-12T00:18:40.325Z,97.24
2023-01-12T00:19:40.529Z,97.13
2023-01-12T00:20:40.277Z,97.49
2023-01-12T00:21:40.275Z,97.28
2023-01-12T00:22:40.252Z,97.49
2023-01-12T00:23:40.232Z,97.17
2023-01-12T00:24:40.250Z,96.86
2023-01-12T00:25:40.214Z,96.82
2023-01-12T00:26:40.226Z,97.34
2023-01-12T00:27:40.193Z,97.03
2023-01-12T00:28:40.170Z,96.72
2023-01-12T00:29:40.187Z,96.51
2023-01-12T00:30:40.151Z,96.61
2023-01-12T00:31:40.152Z,96.61
2023-01-12T00:32:40.122Z,96.51
2023-01-12T00:33:40.126Z,96.55
2023-01-12T00:34:40.095Z,96.34
2023-01-12T00:35:40.137Z,96.66
2023-01-12T00:36:40.095Z,96.61
2023-01-12T00:37:40.093Z,96.61
2023-01-12T00:38:40.065Z,96.72
2023-01-12T00:39:42.990Z,96.82
2023-01-12T00:40:41.043Z,96.82
2023-01-12T00:41:40.027Z,96.03
2023-01-12T00:42:40.014Z,96.03
2023-01-12T00:43:40.018Z,96.86
2023-01-12T00:44:39.985Z,95.99
2023-01-12T00:45:40.009Z,95.89
2023-01-12T00:46:39.959Z,95.99
2023-01-12T00:47:39.996Z,95.78
2023-01-12T00:48:39.936Z,95.68
2023-01-12T00:49:39.934Z,95.31
2023-01-12T00:50:39.924Z,95.68
2023-01-12T00:51:39.938Z,95.00
2023-01-12T00:52:46.970Z,94.95
2023-01-12T00:53:39.895Z,95.31
2023-01-12T00:54:39.890Z,95.10
2023-01-12T00:55:39.885Z,95.37
2023-01-12T00:56:39.875Z,95.41
2023-01-12T00:57:39.867Z,95.16
2023-01-12T00:58:39.859Z,94.79
2023-01-12T00:59:39.814Z,94.74
2023-01-12T01:00:39.827Z,94.89
2023-01-12T01:01:39.914Z,94.74
2023-01-12T01:02:39.837Z,94.95
2023-01-12T01:03:39.789Z,94.54
2023-01-12T01:04:39.756Z,94.58
2023-01-12T01:05:39.756Z,94.23
2023-01-12T01:06:39.740Z,94.58
2023-01-12T01:07:39.766Z,94.37
2023-01-12T01:08:39.724Z,94.37
2023-01-12T01:09:39.708Z,93.54
2023-01-12T01:10:39.681Z,94.06
2023-01-12T01:11:39.677Z,94.17
2023-01-12T01:12:39.714Z,94.06
2023-01-12T01:13:39.656Z,93.85
2023-01-12T01:14:39.670Z,93.85
2023-01-12T01:15:39.710Z,93.65
2023-01-12T01:16:39.624Z,93.85
2023-01-12T01:17:39.630Z,94.17
2023-01-12T01:18:39.595Z,93.65
2023-01-12T01:19:39.593Z,93.65
2023-01-12T01:20:39.578Z,93.54
2023-01-12T01:21:39.562Z,93.65
2023-01-12T01:22:39.576Z,93.44
2023-01-12T01:23:39.560Z,93.85
2023-01-12T01:24:39.537Z,94.27
2023-01-12T01:25:39.523Z,93.38
2023-01-12T01:26:39.507Z,93.75
2023-01-12T01:27:39.536Z,93.85
2023-01-12T01:28:39.593Z,93.96
2023-01-12T01:29:39.517Z,94.17
2023-01-12T01:30:39.457Z,94.06
2023-01-12T01:31:39.449Z,94.06
2023-01-12T01:32:39.437Z,94.42
2023-01-12T01:33:39.464Z,94.63
2023-01-12T01:34:39.441Z,94.27
2023-01-12T01:35:39.436Z,93.65
2023-01-12T01:36:39.393Z,93.75
2023-01-12T01:37:39.404Z,94.37
2023-01-12T01:38:39.388Z,93.85
2023-01-12T01:39:39.382Z,93.65
2023-01-12T01:40:39.337Z,94.06
2023-01-12T01:41:40.181Z,93.96
2023-01-12T01:42:39.342Z,94.12
2023-01-12T01:43:39.313Z,94.02
2023-01-12T01:44:39.336Z,93.85
2023-01-12T01:45:39.307Z,93.65
2023-01-12T01:46:39.351Z,94.02
2023-01-12T01:47:39.367Z,93.85
2023-01-12T01:48:39.256Z,93.81
2023-01-12T01:49:39.270Z,93.81
2023-01-12T01:50:39.236Z,93.81
2023-01-12T01:51:39.225Z,94.02
2023-01-12T01:52:39.207Z,94.02
2023-01-12T01:53:39.208Z,94.12
2023-01-12T01:54:39.207Z,94.02
2023-01-12T01:55:39.174Z,94.33
2023-01-12T01:56:39.162Z,93.50
2023-01-12T01:57:39.160Z,93.60
2023-01-12T01:58:39.146Z,93.91
2023-01-12T01:59:39.157Z,93.50
2023-01-12T02:00:39.130Z,94.02
2023-01-12T02:01:39.308Z,93.81
2023-01-12T02:02:39.168Z,93.87
2023-01-12T02:03:39.095Z,93.71
2023-01-12T02:04:39.122Z,93.50
2023-01-12T02:05:39.087Z,94.02
2023-01-12T02:06:39.057Z,93.91
2023-01-12T02:07:39.045Z,94.12
2023-01-12T02:08:39.028Z,93.98
2023-01-12T02:09:39.022Z,93.98
2023-01-12T02:10:39.043Z,94.08
2023-01-12T02:11:39.003Z,93.50
2023-01-12T02:12:38.986Z,93.71
2023-01-12T02:13:38.975Z,93.66
2023-01-12T02:14:38.963Z,93.40
2023-01-12T02:15:38.982Z,93.40
2023-01-12T02:16:38.966Z,93.71
2023-01-12T02:17:38.923Z,94.02
2023-01-12T02:18:38.919Z,94.43
2023-01-12T02:19:38.903Z,94.74
2023-01-12T02:20:38.917Z,94.12
2023-01-12T02:21:38.883Z,94.33
2023-01-12T02:22:38.917Z,94.33
2023-01-12T02:23:38.862Z,94.33
2023-01-12T02:24:38.852Z,94.43
2023-01-12T02:25:38.858Z,94.74
2023-01-12T02:26:41.692Z,94.54
2023-01-12T02:27:38.860Z,94.54
2023-01-12T02:28:38.813Z,94.12
2023-01-12T02:29:38.804Z,94.43
2023-01-12T02:30:38.786Z,94.43
2023-01-12T02:31:38.881Z,94.12
2023-01-12T02:32:38.800Z,94.85
2023-01-12T02:33:38.768Z,94.43
2023-01-12T02:34:38.737Z,94.37
2023-01-12T02:35:38.742Z,94.33
2023-01-12T02:36:38.742Z,94.58
2023-01-12T02:37:38.705Z,94.43
2023-01-12T02:38:38.695Z,95.10
2023-01-12T02:39:39.213Z,94.33
2023-01-12T02:40:38.686Z,94.54
2023-01-12T02:41:38.696Z,94.48
2023-01-12T02:42:38.642Z,94.54
2023-01-12T02:43:38.634Z,94.64
2023-01-12T02:44:38.645Z,94.12
2023-01-12T02:45:38.610Z,94.33
2023-01-12T02:46:38.664Z,94.43
2023-01-12T02:47:38.612Z,94.74
2023-01-12T02:48:38.594Z,94.33
2023-01-12T02:49:38.562Z,94.48
2023-01-12T02:50:38.590Z,94.43
2023-01-12T02:51:38.547Z,94.02
2023-01-12T02:52:38.555Z,94.02
2023-01-12T02:53:38.522Z,93.91
2023-01-12T02:54:38.517Z,93.60
2023-01-12T02:55:38.533Z,93.60
2023-01-12T02:56:38.508Z,93.50
2023-01-12T02:57:38.472Z,93.40
2023-01-12T02:58:38.484Z,93.50
2023-01-12T02:59:38.468Z,93.91
2023-01-12T03:00:38.470Z,93.50
2023-01-12T03:01:38.468Z,93.60
2023-01-12T03:02:38.619Z,92.57
2023-01-12T03:03:38.404Z,92.68
2023-01-12T03:04:38.419Z,92.88
2023-01-12T03:05:38.385Z,92.98
2023-01-12T03:06:38.376Z,92.98
2023-01-12T03:07:38.379Z,92.98
2023-01-12T03:08:38.372Z,92.98
2023-01-12T03:09:38.335Z,92.98
2023-01-12T03:10:38.329Z,93.08
2023-01-12T03:11:38.332Z,93.08
2023-01-12T03:12:38.353Z,92.98
2023-01-12T03:13:38.288Z,93.08
2023-01-12T03:14:38.303Z,92.98
2023-01-12T03:15:38.268Z,92.57
2023-01-12T03:16:38.266Z,92.68
2023-01-12T03:17:38.280Z,93.08
2023-01-12T03:18:38.243Z,92.93
2023-01-12T03:19:38.237Z,92.26
2023-01-12T03:20:38.264Z,92.57
2023-01-12T03:21:38.211Z,92.98
2023-01-12T03:22:38.212Z,92.98
2023-01-12T03:23:38.181Z,92.26
2023-01-12T03:24:38.178Z,92.98
2023-01-12T03:25:38.156Z,92.78
2023-01-12T03:26:38.155Z,92.61
2023-01-12T03:27:38.159Z,92.68
2023-01-12T03:28:38.170Z,92.61
2023-01-12T03:29:38.121Z,92.41
2023-01-12T03:30:38.125Z,92.72
2023-01-12T03:31:38.114Z,92.26
2023-01-12T03:32:38.140Z,92.57
2023-01-12T03:33:38.083Z,92.68
2023-01-12T03:34:38.058Z,92.88
2023-01-12T03:35:38.080Z,92.26
2023-01-12T03:36:38.055Z,92.26
2023-01-12T03:37:38.052Z,92.78
2023-01-12T03:38:38.017Z,92.47
2023-01-12T03:39:38.000Z,92.78
2023-01-12T03:40:37.994Z,92.20
2023-01-12T03:41:37.973Z,91.95
2023-01-12T03:42:37.997Z,92.05
2023-01-12T03:43:37.972Z,91.53
2023-01-12T03:44:37.957Z,92.05
2023-01-12T03:45:37.928Z,91.64
2023-01-12T03:46:37.945Z,92.05
2023-01-12T03:47:37.933Z,91.70
2023-01-12T03:48:37.905Z,91.53
2023-01-12T03:49:37.882Z,92.05
2023-01-12T03:50:37.928Z,91.70
2023-01-12T03:51:37.870Z,92.16
2023-01-12T03:52:37.905Z,91.60
2023-01-12T03:53:37.848Z,92.05
2023-01-12T03:54:37.837Z,92.26
2023-01-12T03:55:37.831Z,92.05
2023-01-12T03:56:37.812Z,92.05
2023-01-12T03:57:37.835Z,92.68
2023-01-12T03:58:37.793Z,92.53
2023-01-12T03:59:37.770Z,92.16
2023-01-12T04:00:37.802Z,92.57
2023-01-12T04:01:37.888Z,92.68
2023-01-12T04:02:37.768Z,92.78
2023-01-12T04:03:40.708Z,92.57
2023-01-12T04:04:37.729Z,92.57
2023-01-12T04:05:37.719Z,92.36
2023-01-12T04:06:37.741Z,92.05
2023-01-12T04:07:37.681Z,92.74
2023-01-12T04:08:37.702Z,92.05
2023-01-12T04:09:37.676Z,92.11
2023-01-12T04:10:37.653Z,92.16
2023-01-12T04:11:37.668Z,92.01
2023-01-12T04:12:37.653Z,92.57
2023-01-12T04:13:37.624Z,92.11
2023-01-12T04:14:37.615Z,92.53
2023-01-12T04:15:37.601Z,92.11
2023-01-12T04:16:37.618Z,92.53
2023-01-12T04:17:37.569Z,92.11
2023-01-12T04:18:37.586Z,92.43
2023-01-12T04:19:37.563Z,92.22
2023-01-12T04:20:37.546Z,92.63
2023-01-12T04:21:37.552Z,92.94
2023-01-12T04:22:37.525Z,92.94
2023-01-12T04:23:37.514Z,93.15
2023-01-12T04:24:37.524Z,93.15
2023-01-12T04:25:37.503Z,92.90
2023-01-12T04:26:37.484Z,93.04
2023-01-12T04:27:37.461Z,92.90
2023-01-12T04:28:37.460Z,92.90
2023-01-12T04:29:37.435Z,93.00
2023-01-12T04:30:37.464Z,93.00
2023-01-12T04:31:37.456Z,93.10
2023-01-12T04:32:37.412Z,93.00
2023-01-12T04:33:37.397Z,92.90
2023-01-12T04:34:37.392Z,93.00
2023-01-12T04:35:37.400Z,92.90
2023-01-12T04:36:37.366Z,92.90
2023-01-12T04:37:37.369Z,92.90
2023-01-12T04:38:37.344Z,92.80
2023-01-12T04:39:37.341Z,93.10
2023-01-12T04:40:37.338Z,93.10
2023-01-12T04:41:37.307Z,93.10
2023-01-12T04:42:37.323Z,93.00
2023-01-12T04:43:37.276Z,92.80
2023-01-12T04:44:37.289Z,93.10
2023-01-12T04:45:37.394Z,92.69
2023-01-12T04:46:37.276Z,93.21
2023-01-12T04:47:37.239Z,93.41
2023-01-12T04:48:37.229Z,93.52
2023-01-12T04:49:37.215Z,93.62
2023-01-12T04:50:37.209Z,93.73
2023-01-12T04:51:37.218Z,93.62
2023-01-12T04:52:37.194Z,93.41
2023-01-12T04:53:37.189Z,93.73
2023-01-12T04:54:37.164Z,93.52
2023-01-12T04:55:37.178Z,93.41
2023-01-12T04:56:37.158Z,93.62
2023-01-12T04:57:37.131Z,93.52
2023-01-12T04:58:37.115Z,93.31
2023-01-12T04:59:37.117Z,93.31
2023-01-12T05:00:37.114Z,93.31
2023-01-12T05:01:37.214Z,93.41
2023-01-12T05:02:37.071Z,93.31
2023-01-12T05:03:37.059Z,93.41
2023-01-12T05:04:37.049Z,93.52
2023-01-12T05:05:37.036Z,93.41
2023-01-12T05:06:37.048Z,93.41
2023-01-12T05:07:37.048Z,93.73
2023-01-12T05:08:37.001Z,93.21
2023-01-12T05:09:37.014Z,93.62
2023-01-12T05:10:36.986Z,92.90
2023-01-12T05:11:36.975Z,93.10
2023-01-12T05:12:36.999Z,92.38
2023-01-12T05:13:36.940Z,92.80
2023-01-12T05:14:36.940Z,92.96
2023-01-12T05:15:36.935Z,93.10
2023-01-12T05:16:37.015Z,92.80
2023-01-12T05:17:36.924Z,92.90
2023-01-12T05:18:36.911Z,93.00
2023-01-12T05:19:36.973Z,92.90
2023-01-12T05:20:36.885Z,92.59
2023-01-12T05:21:36.862Z,93.10
2023-01-12T05:22:36.851Z,92.69
2023-01-12T05:23:36.878Z,93.10
2023-01-12T05:24:36.833Z,93.10
2023-01-12T05:25:36.821Z,93.00
2023-01-12T05:26:36.800Z,93.21
2023-01-12T05:27:36.817Z,92.90
2023-01-12T05:28:36.869Z,93.00
2023-01-12T05:29:36.763Z,92.90
2023-01-12T05:30:36.812Z,92.59
2023-01-12T05:31:36.745Z,92.59
2023-01-12T05:32:36.774Z,92.69
2023-01-12T05:33:36.719Z,92.69
2023-01-12T05:34:36.711Z,92.90
2023-01-12T05:35:36.699Z,92.80
2023-01-12T05:36:37.597Z,92.90
2023-01-12T05:37:36.672Z,92.59
2023-01-12T05:38:36.691Z,92.59
2023-01-12T05:39:36.650Z,92.59
2023-01-12T05:40:37.726Z,92.55
2023-01-12T05:41:36.629Z,92.44
2023-01-12T05:42:36.631Z,92.24
2023-01-12T05:43:36.631Z,91.93
2023-01-12T05:44:36.620Z,92.28
2023-01-12T05:45:36.628Z,92.13
2023-01-12T05:46:36.575Z,92.44
2023-01-12T05:47:36.572Z,92.55
2023-01-12T05:48:36.559Z,92.44
2023-01-12T05:49:36.539Z,92.34
2023-01-12T05:50:36.549Z,92.30
2023-01-12T05:51:36.548Z,92.09
2023-01-12T05:52:36.511Z,92.03
2023-01-12T05:53:36.542Z,92.24
2023-01-12T05:54:36.483Z,91.88
2023-01-12T05:55:36.482Z,91.88
2023-01-12T05:56:36.487Z,92.40
2023-01-12T05:57:36.459Z,92.19
2023-01-12T05:58:36.448Z,92.61
2023-01-12T05:59:36.430Z,92.40
2023-01-12T06:00:36.443Z,92.91
2023-01-12T06:01:36.429Z,92.19
2023-01-12T06:02:36.444Z,92.09
2023-01-12T06:03:36.406Z,92.09
2023-01-12T06:04:36.467Z,92.40
2023-01-12T06:05:36.356Z,92.19
2023-01-12T06:06:36.369Z,92.71
2023-01-12T06:07:36.336Z,92.61
2023-01-12T06:08:36.362Z,92.91
2023-01-12T06:09:36.327Z,92.50
2023-01-12T06:10:36.304Z,92.09
2023-01-12T06:11:36.306Z,92.50
2023-01-12T06:12:36.280Z,92.57
2023-01-12T06:13:36.276Z,92.67
2023-01-12T06:14:36.263Z,92.67
2023-01-12T06:15:36.327Z,92.81
2023-01-12T06:16:36.275Z,92.46
2023-01-12T06:17:36.252Z,93.08
2023-01-12T06:18:36.217Z,92.36
2023-01-12T06:19:36.218Z,92.77
2023-01-12T06:20:36.194Z,93.08
2023-01-12T06:21:36.185Z,93.43
2023-01-12T06:22:36.174Z,93.33
2023-01-12T06:23:36.194Z,92.50
2023-01-12T06:24:36.174Z,92.71
2023-01-12T06:25:36.131Z,92.77
2023-01-12T06:26:36.135Z,92.81
2023-01-12T06:27:36.104Z,92.91
2023-01-12T06:28:36.101Z,92.71
2023-01-12T06:29:36.122Z,92.87
2023-01-12T06:30:36.075Z,92.71
2023-01-12T06:31:36.085Z,92.91
2023-01-12T06:32:36.097Z,92.91
2023-01-12T06:33:36.060Z,92.91
2023-01-12T06:34:36.031Z,92.71
2023-01-12T06:35:36.024Z,92.87
2023-01-12T06:36:36.063Z,92.91
2023-01-12T06:37:35.998Z,92.81
2023-01-12T06:38:35.981Z,92.50
2023-01-12T06:39:35.979Z,92.91
2023-01-12T06:40:35.960Z,92.61
2023-01-12T06:41:35.988Z,92.81
2023-01-12T06:42:35.936Z,92.91
2023-01-12T06:43:35.935Z,92.91
2023-01-12T06:44:35.917Z,92.40
2023-01-12T06:45:35.908Z,93.23
2023-01-12T06:46:35.980Z,92.61
2023-01-12T06:47:35.888Z,92.50
2023-01-12T06:48:39.167Z,93.12
2023-01-12T06:49:35.868Z,92.50
2023-01-12T06:50:35.845Z,92.57
2023-01-12T06:51:35.887Z,93.02
2023-01-12T06:52:35.830Z,92.77
2023-01-12T06:53:35.822Z,92.81
2023-01-12T06:54:35.816Z,92.50
2023-01-12T06:55:35.795Z,92.87
2023-01-12T06:56:35.803Z,92.67
2023-01-12T06:57:35.778Z,92.77
2023-01-12T06:58:35.757Z,92.87
2023-01-12T06:59:38.186Z,92.77
2023-01-12T07:00:35.737Z,92.40
2023-01-12T07:01:35.915Z,92.77
2023-01-12T07:02:35.750Z,92.36
2023-01-12T07:03:35.703Z,92.87
2023-01-12T07:04:35.743Z,92.36
2023-01-12T07:05:35.735Z,92.87
2023-01-12T07:06:35.687Z,92.87
2023-01-12T07:07:35.662Z,92.25
2023-01-12T07:08:35.656Z,92.46
2023-01-12T07:09:35.647Z,92.00
2023-01-12T07:10:35.621Z,92.05
2023-01-12T07:11:35.635Z,92.05
2023-01-12T07:12:35.622Z,92.52
2023-01-12T07:13:35.833Z,92.21
2023-01-12T07:14:35.587Z,92.72
2023-01-12T07:15:35.630Z,92.52
2023-01-12T07:16:35.572Z,92.32
2023-01-12T07:17:37.269Z,92.42
2023-01-12T07:18:35.537Z,92.21
2023-01-12T07:19:35.550Z,91.90
2023-01-12T07:20:35.585Z,91.90
2023-01-12T07:21:35.502Z,91.69
2023-01-12T07:22:35.511Z,92.11
2023-01-12T07:23:35.482Z,91.90
2023-01-12T07:24:35.460Z,91.69
2023-01-12T07:25:35.464Z,91.80
2023-01-12T07:26:35.454Z,91.28
2023-01-12T07:27:35.433Z,91.69
2023-01-12T07:28:35.415Z,91.80
2023-01-12T07:29:35.430Z,92.11
2023-01-12T07:30:35.386Z,92.63
2023-01-12T07:31:35.381Z,92.42
2023-01-12T07:32:35.373Z,92.72
2023-01-12T07:33:35.397Z,92.72
2023-01-12T07:34:35.374Z,92.21
2023-01-12T07:35:35.335Z,92.32
2023-01-12T07:36:35.382Z,91.80
2023-01-12T07:37:35.319Z,91.69
2023-01-12T07:38:35.346Z,92.52
2023-01-12T07:39:35.311Z,92.63
2023-01-12T07:40:35.277Z,92.42
2023-01-12T07:41:35.283Z,91.75
2023-01-12T07:42:35.256Z,92.11
2023-01-12T07:43:35.261Z,92.32
2023-01-12T07:44:35.231Z,92.21
2023-01-12T07:45:35.218Z,92.48
2023-01-12T07:46:35.284Z,92.11
2023-01-12T07:47:35.206Z,92.32
2023-01-12T07:48:35.193Z,92.32
2023-01-12T07:49:35.219Z,92.52
2023-01-12T07:50:35.157Z,91.90
2023-01-12T07:51:35.160Z,91.96
2023-01-12T07:52:35.152Z,91.75
2023-01-12T07:53:35.148Z,92.27
2023-01-12T07:54:35.111Z,91.90
2023-01-12T07:55:35.138Z,91.96
2023-01-12T07:56:35.111Z,92.27
2023-01-12T07:57:35.082Z,92.42
2023-01-12T07:58:35.073Z,92.07
2023-01-12T07:59:35.057Z,92.38
2023-01-12T08:00:35.046Z,91.75
2023-01-12T08:01:35.220Z,91.86
2023-01-12T08:02:35.018Z,91.86
2023-01-12T08:03:35.013Z,92.07
2023-01-12T08:04:35.038Z,91.75
2023-01-12T08:05:35.028Z,92.07
2023-01-12T08:06:34.972Z,92.17
2023-01-12T08:07:34.996Z,92.07
2023-01-12T08:08:35.004Z,91.75
2023-01-12T08:09:34.973Z,91.65
2023-01-12T08:10:34.938Z,91.44
2023-01-12T08:11:34.928Z,91.34
2023-01-12T08:12:34.908Z,91.44
2023-01-12T08:13:34.899Z,91.44
2023-01-12T08:14:34.901Z,91.55
2023-01-12T08:15:34.898Z,91.24
2023-01-12T08:16:34.862Z,91.44
2023-01-12T08:17:34.857Z,91.24
2023-01-12T08:18:34.871Z,91.34
2023-01-12T08:19:34.847Z,91.03
2023-01-12T08:20:34.834Z,91.44
2023-01-12T08:21:34.830Z,91.30
2023-01-12T08:22:34.807Z,91.50
2023-01-12T08:23:34.801Z,91.40
2023-01-12T08:24:34.805Z,91.50
2023-01-12T08:25:34.766Z,91.61
2023-01-12T08:26:34.761Z,91.50
2023-01-12T08:27:34.735Z,91.30
2023-01-12T08:28:34.753Z,91.30
2023-01-12T08:29:34.746Z,91.30
2023-01-12T08:30:34.728Z,91.30
2023-01-12T08:31:34.691Z,90.78
2023-01-12T08:32:34.671Z,90.58
2023-01-12T08:33:34.784Z,90.68
2023-01-12T08:34:34.688Z,91.20
2023-01-12T08:35:34.664Z,90.99
2023-01-12T08:36:34.626Z,90.78
2023-01-12T08:37:34.633Z,90.58
2023-01-12T08:38:34.603Z,90.78
2023-01-12T08:39:34.645Z,90.68
2023-01-12T08:40:34.615Z,90.68
2023-01-12T08:41:34.578Z,90.47
2023-01-12T08:42:34.564Z,90.68
2023-01-12T08:43:34.548Z,90.26
2023-01-12T08:44:34.534Z,89.75
2023-01-12T08:45:34.544Z,89.34
2023-01-12T08:46:34.604Z,90.12
2023-01-12T08:47:34.594Z,90.16
2023-01-12T08:48:34.501Z,90.16
2023-01-12T08:49:34.496Z,90.89
2023-01-12T08:50:34.487Z,90.78
2023-01-12T08:51:34.492Z,90.53
2023-01-12T08:52:34.460Z,90.06
2023-01-12T08:53:34.452Z,90.43
2023-01-12T08:54:36.846Z,89.92
2023-01-12T08:55:34.433Z,90.33
2023-01-12T08:56:34.444Z,89.34
2023-01-12T08:57:34.423Z,90.16
2023-01-12T09:00:31.782Z,89.95
2023-01-12T09:01:31.809Z,90.68
2023-01-12T09:02:31.659Z,90.58
2023-01-12T09:03:31.597Z,90.64
2023-01-12T09:04:31.584Z,90.99
2023-01-12T09:05:31.595Z,90.68
2023-01-12T09:06:31.601Z,90.06
2023-01-12T09:07:31.597Z,89.92
2023-01-12T09:08:31.579Z,89.95
2023-01-12T09:09:31.560Z,89.95
2023-01-12T09:10:31.543Z,90.26
2023-01-12T09:11:31.505Z,90.26
2023-01-12T09:12:31.502Z,90.06
2023-01-12T09:13:31.662Z,90.68
2023-01-12T09:14:31.468Z,90.58
2023-01-12T09:15:31.481Z,90.16
2023-01-12T09:16:35.135Z,89.44
2023-01-12T09:17:31.599Z,90.16
2023-01-12T09:18:32.044Z,89.95
2023-01-12T09:19:32.303Z,90.68
2023-01-12T09:20:31.555Z,91.09
2023-01-12T09:21:31.608Z,90.68
2023-01-12T09:22:31.383Z,90.06
2023-01-12T09:23:31.532Z,90.16
2023-01-12T09:24:31.350Z,89.44
2023-01-12T09:25:31.349Z,89.75
2023-01-12T09:26:31.327Z,90.06
2023-01-12T09:27:31.343Z,90.16
2023-01-12T09:28:31.321Z,89.65
2023-01-12T09:29:31.305Z,90.06
2023-01-12T09:30:31.317Z,89.34
2023-01-12T09:31:31.382Z,89.61
2023-01-12T09:32:36.788Z,89.65
2023-01-12T09:33:32.252Z,89.71
2023-01-12T09:34:31.337Z,90.06
2023-01-12T09:35:31.259Z,89.65
2023-01-12T09:36:31.208Z,89.75
2023-01-12T09:37:31.223Z,89.75
2023-01-12T09:38:31.191Z,89.92
2023-01-12T09:39:31.231Z,89.23
2023-01-12T09:40:31.166Z,89.13
2023-01-12T09:41:31.167Z,89.71
2023-01-12T09:42:31.140Z,89.86
2023-01-12T09:43:31.131Z,89.71
2023-01-12T09:44:31.155Z,89.61
2023-01-12T09:45:31.201Z,89.65
2023-01-12T09:46:31.108Z,89.92
2023-01-12T09:47:31.097Z,90.06
2023-01-12T09:48:31.082Z,89.81
2023-01-12T09:49:31.090Z,89.61
2023-01-12T09:50:31.081Z,90.02
2023-01-12T09:51:31.041Z,89.81
2023-01-12T09:52:31.022Z,89.92
2023-01-12T09:53:31.041Z,89.81
2023-01-12T09:54:31.024Z,89.81
2023-01-12T09:55:30.997Z,89.61
2023-01-12T09:56:31.026Z,90.12
2023-01-12T09:57:30.979Z,89.61
2023-01-12T09:58:30.989Z,89.98
2023-01-12T09:59:30.981Z,89.29
2023-01-12T10:00:32.554Z,89.29
2023-01-12T10:01:30.978Z,89.81
2023-01-12T10:02:33.177Z,89.09
2023-01-12T10:03:30.994Z,88.78
2023-01-12T10:04:30.893Z,88.74
2023-01-12T10:05:38.809Z,88.74
2023-01-12T10:06:31.885Z,89.19
2023-01-12T10:07:30.874Z,89.15
2023-01-12T10:08:30.840Z,89.15
2023-01-12T10:09:30.836Z,88.74
2023-01-12T10:10:30.822Z,88.98
2023-01-12T10:11:30.838Z,89.05
2023-01-12T10:12:30.804Z,89.09
2023-01-12T10:13:30.792Z,88.95
2023-01-12T10:14:30.773Z,88.57
2023-01-12T10:15:30.808Z,88.98
2023-01-12T10:16:30.819Z,88.89
2023-01-12T10:17:38.634Z,89.05
2023-01-12T10:18:31.731Z,89.61
2023-01-12T10:19:30.756Z,89.87
2023-01-12T10:20:30.734Z,89.29
2023-01-12T10:21:30.719Z,88.74
2023-01-12T10:22:30.684Z,88.74
2023-01-12T10:23:31.579Z,88.84
2023-01-12T10:24:30.700Z,88.95
2023-01-12T10:25:30.675Z,89.09
2023-01-12T10:26:30.678Z,90.08
2023-01-12T10:27:30.678Z,89.09
2023-01-12T10:28:30.610Z,89.77
2023-01-12T10:29:30.602Z,88.74
2023-01-12T10:30:30.641Z,89.15
2023-01-12T10:31:30.647Z,89.36
2023-01-12T10:32:34.520Z,90.19
2023-01-12T10:33:31.570Z,89.05
2023-01-12T10:34:30.573Z,89.92
2023-01-12T10:35:30.565Z,89.92
2023-01-12T10:36:30.523Z,89.81
2023-01-12T10:37:30.542Z,89.81
2023-01-12T10:38:30.523Z,89.56
2023-01-12T10:39:30.494Z,90.02
2023-01-12T10:40:30.505Z,89.56
2023-01-12T10:41:30.469Z,90.02
2023-01-12T10:42:30.450Z,90.12
2023-01-12T10:43:30.454Z,90.22
2023-01-12T10:44:30.453Z,90.59
2023-01-12T10:45:30.543Z,90.22
2023-01-12T10:46:30.408Z,90.84
2023-01-12T10:47:30.396Z,90.64
2023-01-12T10:48:30.424Z,90.02
2023-01-12T10:49:30.399Z,90.12
2023-01-12T10:50:30.377Z,90.59
2023-01-12T10:51:30.444Z,90.33
2023-01-12T10:52:30.349Z,90.12
2023-01-12T10:53:30.356Z,90.64
2023-01-12T10:54:30.324Z,90.95
2023-01-12T10:55:30.307Z,90.53
2023-01-12T10:56:30.311Z,90.12
2023-01-12T10:57:30.300Z,90.08
2023-01-12T10:58:30.285Z,90.08
2023-01-12T10:59:30.308Z,89.56
2023-01-12T11:00:30.259Z,89.87
2023-01-12T11:01:31.071Z,89.67
2023-01-12T11:02:30.500Z,89.46
2023-01-12T11:03:30.286Z,90.70
2023-01-12T11:04:38.930Z,90.59
2023-01-12T11:05:30.314Z,89.98
2023-01-12T11:06:30.180Z,90.28
2023-01-12T11:07:30.183Z,89.98
2023-01-12T11:08:30.184Z,89.87
2023-01-12T11:09:30.176Z,89.46
2023-01-12T11:10:30.218Z,89.77
2023-01-12T11:11:30.154Z,89.87
2023-01-12T11:12:30.267Z,90.19
2023-01-12T11:13:30.098Z,89.98
2023-01-12T11:14:30.102Z,89.98
2023-01-12T11:15:30.102Z,90.28
2023-01-12T11:16:30.205Z,90.59
2023-01-12T11:17:30.068Z,90.49
2023-01-12T11:18:30.040Z,90.49
2023-01-12T11:19:30.031Z,90.59
2023-01-12T11:20:30.060Z,90.91
2023-01-12T11:21:30.031Z,90.80
2023-01-12T11:22:30.040Z,90.80
2023-01-12T11:23:29.988Z,90.91
2023-01-12T11:24:30.004Z,91.22
2023-01-12T11:25:29.956Z,91.22
2023-01-12T11:26:29.953Z,91.11
2023-01-12T11:27:29.972Z,91.42
2023-01-12T11:28:29.980Z,91.73
2023-01-12T11:29:29.932Z,92.04
2023-01-12T11:30:29.926Z,91.73
2023-01-12T11:31:29.901Z,91.63
2023-01-12T11:32:29.908Z,91.83
2023-01-12T11:33:29.875Z,92.55
2023-01-12T11:34:29.912Z,92.46
2023-01-12T11:35:29.924Z,92.55
2023-01-12T11:36:29.857Z,92.46
2023-01-12T11:37:29.818Z,91.83
2023-01-12T11:38:29.837Z,92.14
2023-01-12T11:39:29.795Z,91.94
2023-01-12T11:40:29.829Z,92.25
2023-01-12T11:41:30.074Z,92.55
2023-01-12T11:42:29.852Z,92.86
2023-01-12T11:43:29.763Z,93.07
2023-01-12T11:44:29.772Z,93.07
2023-01-12T11:45:29.831Z,93.28
2023-01-12T11:46:29.827Z,92.55
2023-01-12T11:47:29.744Z,92.14
2023-01-12T11:48:29.795Z,92.86
2023-01-12T11:49:29.795Z,92.55
2023-01-12T11:50:29.767Z,92.97
2023-01-12T11:51:29.690Z,93.07
2023-01-12T11:52:29.683Z,93.38
2023-01-12T11:53:29.664Z,92.86
2023-01-12T11:54:29.752Z,92.97
2023-01-12T11:55:29.708Z,92.97
2023-01-12T11:56:29.798Z,93.49
2023-01-12T11:57:29.688Z,93.07
2023-01-12T11:58:29.710Z,93.49
2023-01-12T11:59:29.615Z,93.07
2023-01-12T12:00:29.596Z,92.97
2023-01-12T12:01:29.604Z,93.49
2023-01-12T12:02:29.698Z,92.97
2023-01-12T12:03:29.563Z,93.18
2023-01-12T12:04:37.584Z,93.69
2023-01-12T12:05:29.711Z,93.18
2023-01-12T12:06:29.640Z,92.97
2023-01-12T12:07:29.625Z,92.97
2023-01-12T12:08:29.491Z,93.07
2023-01-12T12:09:29.464Z,93.28
2023-01-12T12:10:29.487Z,93.59
2023-01-12T12:11:29.439Z,94.00
2023-01-12T12:12:29.443Z,93.38
2023-01-12T12:13:29.486Z,93.07
2023-01-12T12:14:29.415Z,92.86
2023-01-12T12:15:29.426Z,93.01
2023-01-12T12:16:29.412Z,93.18
2023-01-12T12:17:29.406Z,92.97
2023-01-12T12:18:29.353Z,93.07
2023-01-12T12:19:29.365Z,92.76
2023-01-12T12:20:29.356Z,92.66
2023-01-12T12:21:38.208Z,93.49
2023-01-12T12:22:29.391Z,93.59
2023-01-12T12:23:29.468Z,92.55
2023-01-12T12:24:29.355Z,92.76
2023-01-12T12:25:29.310Z,92.60
2023-01-12T12:26:29.289Z,93.01
2023-01-12T12:27:29.252Z,92.66
2023-01-12T12:28:29.259Z,92.70
2023-01-12T12:29:29.304Z,92.70
2023-01-12T12:30:29.247Z,92.86
2023-01-12T12:31:29.226Z,92.80
2023-01-12T12:32:36.833Z,92.60
2023-01-12T12:33:29.309Z,92.19
2023-01-12T12:34:29.226Z,91.88
2023-01-12T12:35:29.219Z,91.63
2023-01-12T12:36:29.160Z,92.19
2023-01-12T12:37:29.212Z,92.08
2023-01-12T12:38:29.155Z,91.77
2023-01-12T12:39:29.141Z,91.77
2023-01-12T12:40:29.161Z,92.19
2023-01-12T12:41:29.101Z,91.67
2023-01-12T12:42:29.100Z,91.22
2023-01-12T12:43:29.127Z,91.36
2023-01-12T12:44:29.114Z,91.77
2023-01-12T12:45:29.092Z,91.63
2023-01-12T12:46:36.783Z,91.36
2023-01-12T12:47:29.060Z,91.63
2023-01-12T12:48:29.015Z,91.67
2023-01-12T12:49:29.010Z,91.22
2023-01-12T12:50:29.030Z,91.94
2023-01-12T12:51:29.029Z,91.11
2023-01-12T12:52:29.215Z,91.67
2023-01-12T12:53:29.104Z,91.11
2023-01-12T12:54:28.946Z,91.94